Main page
METAR-TAF:

METAR-TAF

Airports :

George Best Belfast City Airport

Belfast City, Northern Ireland

latitude: 54-36N, longitude: 005-53W, elevation: 5 m

Current weather observation

The report was made 22 minutes ago, at 13:20 UTC
Wind 9 kt from the North/Northeast
Temperature 19°C
Humidity 60%
Pressure 1023 hPa
Visibility 10 km or more

METAR: EGAC 241320Z AUTO 02009KT 9999 NCD 19/11 Q1023

Time: 14:42 (13:42 UTC)

Forecast

The report was made 2 hours and 38 minutes ago, at 11:04 UTC
Forecast valid from 24 at 12 UTC to 24 at 21 UTC
Wind 10 kt from the North/Northeast
Visibility 10 km or more
Few clouds at a height of 4000 ft

TAF: EGAC 241104Z 2412/2421 03010KT 9999 FEW040

Weather observations and forecasts of more than 4000 airports (METAR and TAF reports).

The available stations are represented by yellow and red dots on the map.

Hover mouse over dot to see the name of the station.

Then click to see weather observations and forecasts.

To change the map : click on the green buttons with a black cross to zoom in, on the green button with a dash to zoom out, or on the green arrows for adjacent maps.


METAR-TAF: